createdAt,value
2022-11-25T01:01:28.949Z,39.42
2022-11-25T01:03:56.858Z,40.80
2022-11-25T01:06:26.015Z,39.75
2022-11-25T01:09:02.779Z,43.22
2022-11-25T01:11:31.554Z,40.35
2022-11-25T01:14:01.801Z,39.95
2022-11-25T01:16:32.943Z,42.45
2022-11-25T01:19:11.832Z,43.30
2022-11-25T01:21:51.790Z,41.65
2022-11-25T01:24:20.731Z,36.70
2022-11-25T01:26:49.085Z,40.30
2022-11-25T01:29:18.626Z,50.38
2022-11-25T01:31:49.705Z,40.00
2022-11-25T01:34:27.589Z,38.70
2022-11-25T01:36:58.953Z,45.45
2022-11-25T01:39:38.939Z,41.63
2022-11-25T01:42:09.849Z,43.60
2022-11-25T01:44:41.727Z,42.47
2022-11-25T01:47:16.236Z,34.53
2022-11-25T01:49:51.416Z,48.67
2022-11-25T01:52:30.338Z,40.08
2022-11-25T01:55:15.910Z,43.78
2022-11-25T01:57:49.372Z,39.15
2022-11-25T02:00:17.570Z,42.15
2022-11-25T02:02:50.652Z,40.95
2022-11-25T02:05:33.773Z,41.00
2022-11-25T02:08:27.107Z,40.63
2022-11-25T02:11:01.684Z,38.80
2022-11-25T02:13:33.082Z,42.97
2022-11-25T02:16:05.591Z,46.60
2022-11-25T02:18:33.506Z,37.47
2022-11-25T02:21:02.688Z,37.17
2022-11-25T02:23:41.080Z,39.85
2022-11-25T02:26:14.970Z,35.72
2022-11-25T02:28:45.095Z,33.05
2022-11-25T02:31:22.632Z,42.08
2022-11-25T02:33:56.946Z,38.42
2022-11-25T02:36:25.077Z,36.67
2022-11-25T02:39:04.942Z,35.08
2022-11-25T02:41:43.305Z,39.95
2022-11-25T02:44:11.829Z,39.20
2022-11-25T02:46:40.553Z,40.63
2022-11-25T02:49:11.873Z,36.63
2022-11-25T02:51:45.337Z,37.05
2022-11-25T02:54:17.313Z,37.53
2022-11-25T02:56:45.204Z,42.38
2022-11-25T02:59:13.644Z,36.13
2022-11-25T03:01:42.139Z,38.25
2022-11-25T03:04:17.948Z,40.08
2022-11-25T03:06:49.966Z,40.35
2022-11-25T03:09:28.822Z,35.95
2022-11-25T03:12:18.212Z,35.97
2022-11-25T03:14:47.752Z,36.00
2022-11-25T03:17:15.773Z,35.78
2022-11-25T03:19:44.072Z,41.10
2022-11-25T03:22:14.223Z,42.58
2022-11-25T03:24:45.755Z,37.05
2022-11-25T03:27:14.441Z,36.97
2022-11-25T03:29:50.336Z,39.63
2022-11-25T03:32:18.924Z,39.20
2022-11-25T03:34:51.170Z,39.47
2022-11-25T03:37:19.917Z,40.42
2022-11-25T03:39:49.210Z,39.55
2022-11-25T03:42:22.449Z,36.30
2022-11-25T03:44:50.995Z,36.38
2022-11-25T03:47:19.944Z,34.35
2022-11-25T03:49:49.228Z,33.55
2022-11-25T03:52:23.062Z,34.13
2022-11-25T03:54:55.794Z,33.33
2022-11-25T03:57:38.556Z,31.80
2022-11-25T04:00:15.817Z,41.55
2022-11-25T04:03:00.007Z,29.13
2022-11-25T04:05:28.674Z,36.83
2022-11-25T04:08:00.405Z,36.40
2022-11-25T04:10:31.790Z,36.88
2022-11-25T04:13:00.976Z,34.17
2022-11-25T04:15:47.671Z,34.85
2022-11-25T04:18:21.484Z,34.22
2022-11-25T04:20:55.238Z,36.28
2022-11-25T04:23:25.672Z,30.92
2022-11-25T04:26:05.443Z,35.13
2022-11-25T04:28:41.661Z,30.27
2022-11-25T04:31:32.151Z,35.08
2022-11-25T04:34:03.411Z,35.60
2022-11-25T04:36:42.217Z,33.45
2022-11-25T04:39:10.721Z,35.78
2022-11-25T04:41:39.714Z,31.73
2022-11-25T04:44:10.654Z,35.10
2022-11-25T04:46:40.916Z,27.88
2022-11-25T04:49:10.476Z,32.58
2022-11-25T04:51:40.313Z,25.70
2022-11-25T04:54:08.279Z,33.20
2022-11-25T04:56:38.320Z,30.70
2022-11-25T04:59:27.311Z,30.38
2022-11-25T05:01:55.291Z,29.85
2022-11-25T05:04:52.170Z,34.47
2022-11-25T05:07:21.946Z,34.92
2022-11-25T05:09:52.651Z,33.70
2022-11-25T05:12:38.420Z,35.03
2022-11-25T05:15:14.575Z,34.47
2022-11-25T05:20:46.056Z,31.52
2022-11-25T05:23:22.239Z,33.45
2022-11-25T05:26:24.270Z,40.28
2022-11-25T05:29:18.467Z,32.40
2022-11-25T05:31:49.904Z,32.15
2022-11-25T05:34:24.555Z,44.33
2022-11-25T05:37:01.733Z,34.80
2022-11-25T10:00:33.481Z,36.22
2022-11-25T10:03:03.378Z,38.75
2022-11-25T10:06:10.645Z,38.25
2022-11-25T10:08:43.444Z,40.80
2022-11-25T10:11:40.504Z,41.80
2022-11-25T10:14:38.643Z,43.20
2022-11-25T10:18:03.373Z,44.40
2022-11-25T10:20:42.541Z,40.88
2022-11-25T10:24:12.092Z,40.53
2022-11-25T10:30:11.389Z,38.50
2022-11-25T10:33:02.292Z,42.22
2022-11-25T10:35:45.280Z,38.72
2022-11-25T10:38:24.422Z,42.67
2022-11-25T10:41:29.345Z,44.00
2022-11-25T10:51:12.846Z,43.45
2022-11-25T10:53:43.495Z,40.90
2022-11-25T10:56:21.019Z,46.55
2022-11-25T10:58:51.818Z,45.70
2022-11-25T11:01:26.887Z,47.85
2022-11-25T11:04:07.048Z,44.10
2022-11-25T11:06:40.335Z,48.05
2022-11-25T11:09:35.605Z,44.33
2022-11-25T11:12:16.592Z,49.05
2022-11-25T11:14:44.468Z,53.95
2022-11-25T11:17:37.108Z,51.85
2022-11-25T11:20:08.551Z,52.58
2022-11-25T11:22:37.250Z,49.72
2022-11-25T11:25:28.927Z,47.08
2022-11-25T11:27:57.097Z,54.13
2022-11-25T11:30:30.266Z,46.90
2022-11-25T11:33:06.545Z,51.28
2022-11-25T11:35:55.668Z,49.03
2022-11-25T11:38:25.054Z,46.10
2022-11-25T11:41:18.621Z,43.72
2022-11-25T11:44:16.078Z,46.50
2022-11-25T11:51:23.813Z,42.58
2022-11-25T11:53:58.092Z,53.00
2022-11-25T11:56:44.575Z,45.00
2022-11-25T11:59:22.040Z,50.28
2022-11-25T12:02:06.132Z,49.42
2022-11-25T12:04:52.730Z,48.72
2022-11-25T12:07:50.931Z,50.53
2022-11-25T12:10:41.361Z,46.80
2022-11-25T12:13:19.711Z,48.78
2022-11-25T12:16:03.224Z,47.35
2022-11-25T12:19:02.854Z,54.42
2022-11-25T12:22:00.780Z,48.30
2022-11-25T12:24:58.507Z,52.03
2022-11-25T12:27:41.065Z,42.75
2022-11-25T12:30:20.868Z,48.25
2022-11-25T12:33:00.631Z,52.00
2022-11-25T12:35:32.004Z,37.10
2022-11-25T12:38:11.690Z,43.70
2022-11-25T12:41:03.774Z,39.17
2022-11-25T12:43:46.670Z,36.25
2022-11-25T12:46:35.752Z,41.10
2022-11-25T12:49:04.481Z,35.97
2022-11-25T12:51:35.588Z,37.30
2022-11-25T12:54:22.257Z,35.92
2022-11-25T12:57:44.418Z,36.95
2022-11-25T13:00:41.176Z,33.53
2022-11-25T13:03:46.940Z,38.28
2022-11-25T13:06:23.546Z,35.90
2022-11-25T13:08:59.127Z,40.35
2022-11-25T13:11:41.614Z,38.13
2022-11-25T13:14:37.024Z,40.58
2022-11-25T13:17:18.451Z,43.97
2022-11-25T13:19:49.646Z,49.28
2022-11-25T13:22:18.923Z,42.65
2022-11-25T13:24:47.097Z,42.47
2022-11-25T13:27:54.093Z,41.20
2022-11-25T13:30:34.705Z,42.08
2022-11-25T13:35:43.679Z,50.33
2022-11-25T13:38:37.477Z,51.97
2022-11-25T13:41:57.018Z,50.03
2022-11-25T13:45:12.134Z,53.40
2022-11-25T13:48:55.245Z,48.58
2022-11-25T13:51:47.300Z,53.00
2022-11-25T13:54:42.861Z,50.80
2022-11-25T13:57:42.547Z,61.05
2022-11-25T14:00:15.811Z,60.22
2022-11-25T14:02:50.033Z,55.63
2022-11-25T14:05:35.798Z,59.80
2022-11-25T14:08:24.898Z,68.25
2022-11-25T14:10:55.758Z,57.67
2022-11-25T14:13:50.127Z,51.45
2022-11-25T14:19:59.168Z,59.50
2022-11-25T14:23:03.377Z,59.10
2022-11-25T14:25:43.252Z,47.45
2022-11-25T14:28:27.018Z,46.72
2022-11-25T14:31:01.026Z,44.03
2022-11-25T14:33:33.415Z,39.65
2022-11-25T14:36:35.266Z,35.50
2022-11-25T14:39:14.151Z,31.88
2022-11-25T14:41:44.540Z,32.13
2022-11-25T14:44:18.703Z,38.88
2022-11-25T14:46:52.488Z,35.83
2022-11-25T14:49:46.606Z,34.38
2022-11-25T14:55:30.778Z,31.23
2022-11-25T14:57:59.043Z,30.23
2022-11-25T15:00:27.731Z,32.85
2022-11-25T15:03:00.836Z,35.47
2022-11-25T15:05:37.140Z,38.75
2022-11-25T15:08:13.729Z,36.13
2022-11-25T15:10:51.419Z,27.58
2022-11-25T15:13:22.151Z,28.45
2022-11-25T15:15:51.813Z,34.22
2022-11-25T15:18:21.652Z,28.05
2022-11-25T15:20:51.379Z,34.67
2022-11-25T15:23:32.443Z,31.35
2022-11-25T15:26:05.043Z,37.03
2022-11-25T15:28:52.117Z,32.40
2022-11-25T15:31:21.583Z,26.08
2022-11-25T15:33:54.512Z,26.98
2022-11-25T15:36:24.265Z,30.63
2022-11-25T15:38:52.678Z,29.83
2022-11-25T15:41:36.306Z,28.67
2022-11-25T15:44:15.669Z,36.40
2022-11-25T15:46:50.716Z,36.75
2022-11-25T15:49:18.625Z,34.70
2022-11-25T15:51:54.401Z,52.33
2022-11-25T15:54:29.246Z,34.88
2022-11-25T15:57:02.668Z,32.25
2022-11-25T15:59:42.953Z,33.30
2022-11-25T16:02:46.120Z,28.30
2022-11-25T16:05:14.728Z,32.65
2022-11-25T16:07:51.849Z,33.33
2022-11-25T16:10:33.805Z,41.10
2022-11-25T16:13:24.338Z,54.22
2022-11-25T16:15:53.372Z,47.22
2022-11-25T16:18:39.799Z,35.72
2022-11-25T16:21:12.799Z,47.20
2022-11-25T16:23:48.481Z,47.35
2022-11-25T16:26:24.612Z,42.08
2022-11-25T16:28:57.180Z,40.05
2022-11-25T16:31:25.466Z,30.20
2022-11-25T16:34:14.543Z,35.20
2022-11-25T16:36:43.546Z,32.33
2022-11-25T16:39:11.534Z,28.67
2022-11-25T16:41:41.119Z,27.65
2022-11-25T16:44:27.615Z,30.85
2022-11-25T16:46:55.788Z,33.90
2022-11-25T16:49:23.876Z,51.25
2022-11-25T16:51:51.976Z,78.38
2022-11-25T16:54:25.711Z,62.40
2022-11-25T16:56:54.121Z,49.10
2022-11-25T16:59:28.384Z,39.42
2022-11-25T17:01:56.362Z,39.97
2022-11-25T17:04:25.632Z,38.83
2022-11-25T17:07:30.443Z,33.80
2022-11-25T17:09:44.412Z,76.35
2022-11-25T17:12:18.462Z,39.13
2022-11-25T17:14:47.685Z,47.15
2022-11-25T17:17:24.406Z,55.42
2022-11-25T17:19:53.373Z,46.35
2022-11-25T17:22:24.329Z,55.28
2022-11-25T17:24:52.367Z,49.17
2022-11-25T17:27:31.033Z,36.90
2022-11-25T17:30:00.087Z,47.60
2022-11-25T17:32:28.437Z,40.42
2022-11-25T17:37:38.769Z,36.67
2022-11-25T17:40:07.563Z,40.38
2022-11-25T17:42:36.024Z,43.75
2022-11-25T17:45:04.484Z,48.08
2022-11-25T17:47:32.710Z,50.60
2022-11-25T17:50:02.035Z,42.22
2022-11-25T17:52:30.923Z,33.83
2022-11-25T17:54:58.819Z,39.05
2022-11-25T17:57:38.703Z,27.52
2022-11-25T18:00:13.019Z,33.25
2022-11-25T18:02:41.381Z,30.15
2022-11-25T18:05:17.620Z,33.83
2022-11-25T18:07:46.231Z,32.00
2022-11-25T18:10:18.821Z,44.10
2022-11-25T18:12:47.560Z,37.30
2022-11-25T18:15:27.771Z,35.50
2022-11-25T18:18:21.088Z,45.13
2022-11-25T18:20:50.283Z,35.10
2022-11-25T18:23:20.001Z,34.50
2022-11-25T18:25:50.931Z,36.53
2022-11-25T18:28:22.291Z,42.13
2022-11-25T18:30:50.244Z,32.30
2022-11-25T18:33:18.948Z,34.45
2022-11-25T18:35:47.310Z,35.22
2022-11-25T18:38:17.918Z,35.90
2022-11-25T18:40:51.874Z,38.33
2022-11-25T18:43:25.694Z,30.45
2022-11-25T18:45:54.296Z,39.28
2022-11-25T18:48:23.924Z,33.58
2022-11-25T18:50:53.142Z,32.47
2022-11-25T18:53:21.210Z,29.85
2022-11-25T18:55:49.258Z,35.97
2022-11-25T18:58:20.529Z,36.33
2022-11-25T19:00:51.252Z,34.20
2022-11-25T19:03:21.431Z,34.30
2022-11-25T19:05:50.271Z,36.20
2022-11-25T19:08:18.875Z,37.47
2022-11-25T19:10:47.660Z,34.10
2022-11-25T19:13:21.033Z,39.25
2022-11-25T19:15:49.543Z,34.00
2022-11-25T19:18:24.299Z,39.30
2022-11-25T19:20:52.678Z,39.85
2022-11-25T19:23:25.772Z,39.35
2022-11-25T19:26:00.107Z,44.67
2022-11-25T19:28:28.931Z,41.70
2022-11-25T19:30:59.576Z,41.83
2022-11-25T19:33:35.014Z,43.20
2022-11-25T19:36:03.116Z,44.55
2022-11-25T19:38:33.067Z,42.78
2022-11-25T19:41:01.657Z,43.88
2022-11-25T19:43:29.624Z,39.75
2022-11-25T19:45:57.855Z,42.83
2022-11-25T19:51:02.443Z,52.83
2022-11-25T19:53:33.911Z,51.50
2022-11-25T19:56:04.942Z,48.40
2022-11-25T19:58:34.888Z,55.63
2022-11-25T20:01:04.058Z,58.30
2022-11-25T20:03:32.083Z,50.20
2022-11-25T20:06:00.097Z,61.08
2022-11-25T20:08:29.158Z,59.88
2022-11-25T20:10:57.849Z,52.78
2022-11-25T20:13:26.429Z,52.72
2022-11-25T20:15:56.070Z,63.60
2022-11-25T20:18:29.895Z,57.38
2022-11-25T20:21:08.589Z,58.92
2022-11-25T20:23:43.369Z,55.42
2022-11-25T20:26:27.512Z,60.35
2022-11-25T20:28:56.194Z,57.75
2022-11-25T20:31:30.698Z,61.67
2022-11-25T20:33:58.977Z,53.70
2022-11-25T20:36:31.171Z,60.58
2022-11-25T20:39:00.038Z,60.65
2022-11-25T20:41:28.293Z,58.42
2022-11-25T20:43:56.659Z,67.75
2022-11-25T20:46:27.229Z,62.63
2022-11-25T20:48:56.914Z,61.53
2022-11-25T20:51:24.931Z,64.13
2022-11-25T20:53:55.699Z,71.63
2022-11-25T20:56:24.936Z,64.75
2022-11-25T20:58:53.137Z,73.85
2022-11-25T21:01:21.122Z,69.95
2022-11-25T21:03:49.652Z,61.83
2022-11-25T21:06:20.505Z,68.30
2022-11-25T21:08:50.070Z,77.50
2022-11-25T21:11:21.823Z,75.72
2022-11-25T21:13:49.997Z,61.22
2022-11-25T21:16:18.236Z,71.65
2022-11-25T21:18:46.580Z,63.95
2022-11-25T21:21:29.347Z,70.60
2022-11-25T21:24:15.583Z,69.03
2022-11-25T21:26:43.445Z,72.05
2022-11-25T21:29:24.629Z,78.63
2022-11-25T21:31:53.234Z,77.83
2022-11-25T21:34:21.691Z,77.22
2022-11-25T21:36:52.006Z,77.47
2022-11-25T21:41:59.328Z,77.15
2022-11-25T21:44:32.438Z,77.15
2022-11-25T21:47:00.687Z,68.10
2022-11-25T21:49:29.151Z,74.25
2022-11-25T21:51:57.669Z,64.45
2022-11-25T21:54:25.625Z,68.32
2022-11-25T21:56:58.125Z,71.05
2022-11-25T21:59:25.958Z,68.53
2022-11-25T22:01:55.546Z,72.45
2022-11-25T22:04:23.910Z,88.60
2022-11-25T22:06:52.133Z,85.47
2022-11-25T22:09:20.172Z,84.75
2022-11-25T22:11:48.727Z,79.95
2022-11-25T22:14:28.949Z,69.03
2022-11-25T22:16:56.991Z,77.75
2022-11-25T22:19:25.668Z,76.63
2022-11-25T22:21:53.786Z,84.90
2022-11-25T22:24:25.200Z,77.72
2022-11-25T22:26:57.736Z,59.92
2022-11-25T22:29:31.815Z,80.18
2022-11-25T22:31:59.793Z,80.10
2022-11-25T22:34:27.698Z,84.30
2022-11-25T22:36:55.551Z,74.13
2022-11-25T22:39:24.584Z,89.25
2022-11-25T22:42:01.142Z,68.13
2022-11-25T22:44:43.048Z,69.88
2022-11-25T22:47:35.422Z,76.93
2022-11-25T22:50:05.964Z,81.15
2022-11-25T22:52:35.590Z,59.80
2022-11-25T22:55:16.945Z,72.03
2022-11-25T22:57:45.013Z,56.05
2022-11-25T23:00:20.251Z,64.78
2022-11-25T23:02:48.514Z,63.90
2022-11-25T23:05:31.843Z,67.95
2022-11-25T23:08:02.415Z,74.85
2022-11-25T23:10:31.377Z,67.30
2022-11-25T23:12:59.230Z,62.17
2022-11-25T23:15:27.281Z,56.78
2022-11-25T23:18:00.056Z,58.42
2022-11-25T23:20:33.035Z,63.83
2022-11-25T23:23:18.216Z,56.58
2022-11-25T23:25:46.361Z,50.88
2022-11-25T23:28:14.918Z,47.45
2022-11-25T23:30:47.735Z,52.20
2022-11-25T23:33:25.920Z,55.05
2022-11-25T23:35:53.870Z,43.05
2022-11-25T23:38:22.975Z,48.88
2022-11-25T23:40:50.901Z,44.10
2022-11-25T23:43:18.908Z,43.42
2022-11-25T23:45:52.540Z,41.67
2022-11-25T23:48:23.035Z,46.95
2022-11-25T23:50:51.069Z,43.85
2022-11-25T23:53:26.149Z,42.78
2022-11-25T23:55:54.128Z,40.55
2022-11-25T23:58:29.623Z,47.67
